Time;durP1;ratioP1;P1;durP2;ratioP2;P2;SDS_P1;SDS_P2;PMS_P1;PMS_P2;Temp;Humidity;BMP_temperature;BMP_pressure;BME280_temperature;BME280_humidity;BME280_pressure;Samples;Min_cycle;Max_cycle;Signal;HPM_P1;HPM_P2
2023/06/02 00:01:33;;;;;;;;;;;20.50;54.00;;;;;;5041504;28;19923;-81
2023/06/02 00:03:59;;;;;;;;;;;20.50;54.00;;;;;;5042516;28;19912;-82
2023/06/02 00:06:26;;;;;;;;;;;20.40;53.90;;;;;;5042236;28;19915;-82
2023/06/02 00:08:52;;;;;;;;;;;20.40;53.90;;;;;;5058200;28;20314;-82
2023/06/02 00:11:19;;;;;;;;;;;20.40;53.90;;;;;;5041482;28;19984;-82
2023/06/02 00:13:45;;;;;;;;;;;20.40;53.90;;;;;;5040902;28;19909;-82
2023/06/02 00:16:12;;;;;;;;;;;20.40;53.90;;;;;;5040957;28;19909;-82
2023/06/02 00:18:39;;;;;;;;;;;20.40;53.90;;;;;;5056271;28;19935;-82
2023/06/02 00:21:06;;;;;;;;;;;20.40;53.90;;;;;;5036618;28;19946;-82
2023/06/02 00:23:32;;;;;;;;;;;20.40;53.90;;;;;;5057375;28;19913;-82
2023/06/02 00:25:58;;;;;;;;;;;20.40;53.90;;;;;;5038302;28;20328;-82
2023/06/02 00:28:24;;;;;;;;;;;20.30;53.90;;;;;;5038606;28;20183;-82
2023/06/02 00:30:50;;;;;;;;;;;20.30;53.90;;;;;;5039389;28;19916;-83
2023/06/02 00:33:16;;;;;;;;;;;20.30;53.90;;;;;;5039507;28;19978;-82
2023/06/02 00:35:42;;;;;;;;;;;20.30;53.90;;;;;;5039847;28;19913;-82
2023/06/02 00:38:07;;;;;;;;;;;20.30;53.90;;;;;;5039002;28;19984;-82
2023/06/02 00:40:33;;;;;;;;;;;20.30;53.90;;;;;;5040133;28;20229;-82
2023/06/02 00:43:00;;;;;;;;;;;20.30;53.90;;;;;;5039991;28;19956;-82
2023/06/02 00:45:26;;;;;;;;;;;20.30;53.90;;;;;;5041121;28;19913;-82
2023/06/02 00:47:51;;;;;;;;;;;20.30;53.90;;;;;;5057946;28;19974;-82
2023/06/02 00:50:17;;;;;;;;;;;20.30;53.90;;;;;;5041314;28;20011;-82
2023/06/02 00:52:44;;;;;;;;;;;20.30;53.90;;;;;;5040472;28;20168;-82
2023/06/02 00:55:10;;;;;;;;;;;20.20;53.90;;;;;;5041274;28;19909;-82
2023/06/02 00:57:40;;;;;;;;;;;20.20;53.90;;;;;;5058774;28;19909;-82
2023/06/02 01:00:06;;;;;;;;;;;20.20;53.90;;;;;;5040742;28;20236;-82
2023/06/02 01:02:32;;;;;;;;;;;20.20;53.90;;;;;;5041507;28;19908;-82
2023/06/02 01:05:00;;;;;;;;;;;20.20;53.80;;;;;;5041297;28;19934;-82
2023/06/02 01:07:27;;;;;;;;;;;20.20;53.80;;;;;;5040389;28;19909;-82
2023/06/02 01:09:54;;;;;;;;;;;20.20;53.80;;;;;;5057415;28;19920;-83
2023/06/02 01:12:20;;;;;;;;;;;20.20;53.80;;;;;;5056942;28;19940;-82
2023/06/02 01:14:46;;;;;;;;;;;20.10;53.80;;;;;;5057074;28;20241;-82
2023/06/02 01:17:13;;;;;;;;;;;20.10;53.80;;;;;;5039299;28;20003;-82
2023/06/02 01:19:40;;;;;;;;;;;20.10;53.80;;;;;;5039681;28;19909;-82
2023/06/02 01:22:08;;;;;;;;;;;20.10;53.80;;;;;;5038932;28;20034;-82
2023/06/02 01:24:40;;;;;;;;;;;20.10;53.80;;;;;;5037876;28;19917;-82
2023/06/02 01:27:07;;;;;;;;;;;20.10;53.80;;;;;;5038269;28;19974;-83
2023/06/02 01:29:35;;;;;;;;;;;20.10;53.80;;;;;;5039122;28;19974;-82
2023/06/02 01:32:06;;;;;;;;;;;20.10;53.80;;;;;;5038980;28;20004;-82
2023/06/02 01:34:39;;;;;;;;;;;20.10;53.80;;;;;;5055223;28;19931;-82
2023/06/02 01:37:05;;;;;;;;;;;20.10;53.80;;;;;;5039422;28;19971;-82
2023/06/02 01:39:31;;;;;;;;;;;20.00;53.80;;;;;;5039082;28;19932;-82
2023/06/02 01:42:00;;;;;;;;;;;20.00;53.80;;;;;;5039210;28;20202;-82
2023/06/02 01:44:26;;;;;;;;;;;20.00;53.80;;;;;;5039950;28;19909;-82
2023/06/02 01:46:52;;;;;;;;;;;20.00;53.80;;;;;;5039291;28;20396;-82
2023/06/02 01:49:17;;;;;;;;;;;20.00;53.80;;;;;;5038929;28;20260;-82
2023/06/02 01:51:43;;;;;;;;;;;20.00;53.80;;;;;;5039500;28;19909;-82
2023/06/02 01:54:10;;;;;;;;;;;20.00;53.80;;;;;;5039665;28;20404;-82
2023/06/02 01:56:36;;;;;;;;;;;19.90;53.80;;;;;;5057354;28;19908;-82
2023/06/02 01:59:02;;;;;;;;;;;19.90;53.80;;;;;;5056226;28;19908;-82
2023/06/02 02:01:27;;;;;;;;;;;19.90;53.80;;;;;;5038927;28;19913;-82
2023/06/02 02:03:53;;;;;;;;;;;19.90;53.80;;;;;;5038461;28;20171;-82
2023/06/02 02:06:24;;;;;;;;;;;19.90;53.80;;;;;;5039522;28;20275;-82
2023/06/02 02:08:50;;;;;;;;;;;19.90;53.80;;;;;;5056985;28;19959;-82
2023/06/02 02:11:16;;;;;;;;;;;19.90;53.80;;;;;;5055902;28;19916;-82
2023/06/02 02:13:41;;;;;;;;;;;19.90;53.80;;;;;;5039530;28;19909;-82
2023/06/02 02:16:07;;;;;;;;;;;19.90;53.80;;;;;;5039361;28;20013;-82
2023/06/02 02:18:32;;;;;;;;;;;19.80;53.70;;;;;;5039504;28;20322;-82
2023/06/02 02:20:59;;;;;;;;;;;19.80;53.80;;;;;;5038802;28;20409;-82
2023/06/02 02:23:25;;;;;;;;;;;19.80;53.80;;;;;;5038842;28;19915;-82
2023/06/02 02:25:51;;;;;;;;;;;19.80;53.80;;;;;;5039066;28;19959;-82
2023/06/02 02:28:16;;;;;;;;;;;19.80;53.80;;;;;;5039392;28;19944;-82
2023/06/02 02:30:42;;;;;;;;;;;19.80;53.80;;;;;;5037784;28;20167;-82
2023/06/02 02:33:08;;;;;;;;;;;19.80;53.80;;;;;;5037518;28;19909;-82
2023/06/02 02:35:33;;;;;;;;;;;19.80;53.80;;;;;;5038468;28;19925;-82
2023/06/02 02:37:59;;;;;;;;;;;19.70;53.80;;;;;;5038021;28;19967;-82
2023/06/02 02:40:24;;;;;;;;;;;19.80;53.80;;;;;;5038039;28;19917;-82
2023/06/02 02:42:50;;;;;;;;;;;19.70;53.80;;;;;;5037447;28;19919;-82
2023/06/02 02:45:15;;;;;;;;;;;19.70;53.80;;;;;;5037823;28;19909;-82
2023/06/02 02:47:41;;;;;;;;;;;19.70;53.80;;;;;;5055516;28;19909;-82
2023/06/02 02:50:07;;;;;;;;;;;19.70;53.80;;;;;;5037912;28;19955;-82
2023/06/02 02:52:33;;;;;;;;;;;19.70;53.80;;;;;;5055024;28;19944;-82
2023/06/02 02:54:58;;;;;;;;;;;19.70;53.80;;;;;;5039002;28;19952;-82
2023/06/02 02:57:24;;;;;;;;;;;19.70;53.90;;;;;;5038096;28;20241;-82
2023/06/02 02:59:49;;;;;;;;;;;19.70;53.90;;;;;;5038667;28;20308;-82
2023/06/02 03:02:16;;;;;;;;;;;19.70;53.90;;;;;;5037107;28;19909;-82
2023/06/02 03:04:43;;;;;;;;;;;19.70;53.90;;;;;;5038142;28;19908;-82
2023/06/02 03:07:08;;;;;;;;;;;19.70;53.90;;;;;;5038023;28;19948;-81
2023/06/02 03:09:34;;;;;;;;;;;19.60;53.80;;;;;;5038421;28;19952;-82
2023/06/02 03:12:00;;;;;;;;;;;19.60;53.80;;;;;;5037604;28;19908;-82
2023/06/02 03:14:29;;;;;;;;;;;19.60;53.80;;;;;;5037223;28;19909;-81
2023/06/02 03:16:56;;;;;;;;;;;19.60;53.80;;;;;;5037002;28;19915;-82
2023/06/02 03:19:24;;;;;;;;;;;19.60;53.80;;;;;;5038149;28;20402;-82
2023/06/02 03:21:51;;;;;;;;;;;19.60;53.80;;;;;;5054032;28;19924;-82
2023/06/02 03:24:17;;;;;;;;;;;19.60;53.80;;;;;;5038451;28;20054;-82
2023/06/02 03:26:43;;;;;;;;;;;19.60;54.20;;;;;;5037622;28;19909;-82
2023/06/02 03:29:09;;;;;;;;;;;19.60;53.80;;;;;;5037980;28;19982;-82
2023/06/02 03:31:35;;;;;;;;;;;19.60;53.80;;;;;;5053713;28;20278;-82
2023/06/02 03:34:01;;;;;;;;;;;19.50;53.70;;;;;;5036831;28;19917;-82
2023/06/02 03:36:27;;;;;;;;;;;19.50;53.70;;;;;;5036408;28;19988;-82
2023/06/02 03:38:53;;;;;;;;;;;19.60;53.80;;;;;;5036253;28;20021;-82
2023/06/02 03:41:19;;;;;;;;;;;19.50;53.70;;;;;;5036543;28;20083;-82
2023/06/02 03:43:44;;;;;;;;;;;19.50;53.70;;;;;;5052538;28;20498;-82
2023/06/02 03:46:10;;;;;;;;;;;19.50;53.70;;;;;;5053295;28;19909;-82
2023/06/02 03:48:35;;;;;;;;;;;19.50;53.70;;;;;;5054057;28;19972;-82
2023/06/02 03:51:01;;;;;;;;;;;19.50;53.70;;;;;;5036567;28;20357;-82
2023/06/02 03:53:27;;;;;;;;;;;19.50;53.70;;;;;;5052764;28;20251;-82
2023/06/02 03:55:52;;;;;;;;;;;19.50;53.60;;;;;;5036305;28;19919;-82
2023/06/02 03:58:19;;;;;;;;;;;19.40;53.60;;;;;;5052031;28;20329;-82
2023/06/02 04:00:46;;;;;;;;;;;19.40;53.50;;;;;;5051752;28;19920;-82
2023/06/02 04:03:11;;;;;;;;;;;19.40;53.50;;;;;;5051031;28;20391;-82
2023/06/02 04:05:37;;;;;;;;;;;19.40;53.40;;;;;;5052503;28;20525;-81
2023/06/02 04:08:03;;;;;;;;;;;19.40;53.80;;;;;;5051666;28;19920;-82
2023/06/02 04:10:30;;;;;;;;;;;19.40;53.40;;;;;;5052112;28;19913;-82
2023/06/02 04:12:56;;;;;;;;;;;19.40;53.80;;;;;;5035424;28;20167;-82
2023/06/02 04:15:21;;;;;;;;;;;19.40;53.40;;;;;;5054840;28;19916;-81
2023/06/02 04:17:47;;;;;;;;;;;19.40;53.50;;;;;;5039292;28;19934;-81
2023/06/02 04:20:13;;;;;;;;;;;19.40;53.50;;;;;;5038378;28;19916;-81
2023/06/02 04:22:39;;;;;;;;;;;19.40;53.50;;;;;;5038397;28;20083;-81
2023/06/02 04:25:05;;;;;;;;;;;19.30;53.40;;;;;;5036907;28;20238;-81
2023/06/02 04:27:31;;;;;;;;;;;19.30;53.40;;;;;;5036054;28;20267;-81
2023/06/02 04:29:57;;;;;;;;;;;19.30;53.40;;;;;;5035721;28;19909;-81
2023/06/02 04:32:24;;;;;;;;;;;19.30;53.40;;;;;;5036939;28;19913;-81
2023/06/02 04:34:50;;;;;;;;;;;19.30;53.40;;;;;;5052325;28;19923;-81
2023/06/02 04:37:16;;;;;;;;;;;19.30;53.70;;;;;;5035672;28;19909;-81
2023/06/02 04:39:46;;;;;;;;;;;19.30;53.30;;;;;;5035046;28;19940;-81
2023/06/02 04:42:16;;;;;;;;;;;19.30;53.30;;;;;;5037833;28;20150;-81
2023/06/02 04:44:44;;;;;;;;;;;19.30;53.30;;;;;;5038692;28;19909;-81
2023/06/02 04:47:13;;;;;;;;;;;19.30;53.30;;;;;;5053939;28;20345;-82
2023/06/02 04:49:39;;;;;;;;;;;19.30;53.30;;;;;;5035894;28;20303;-81
2023/06/02 04:52:08;;;;;;;;;;;19.30;53.40;;;;;;5037758;28;19944;-81
2023/06/02 04:54:34;;;;;;;;;;;19.30;53.40;;;;;;5036505;28;19909;-81
2023/06/02 04:57:00;;;;;;;;;;;19.30;53.50;;;;;;5034396;28;20265;-81
2023/06/02 04:59:26;;;;;;;;;;;19.30;53.50;;;;;;5036574;28;20287;-81
2023/06/02 05:01:52;;;;;;;;;;;19.30;53.50;;;;;;5037108;28;19939;-81
2023/06/02 05:04:19;;;;;;;;;;;19.30;53.50;;;;;;5037715;28;19909;-82
2023/06/02 05:06:45;;;;;;;;;;;19.30;53.40;;;;;;5035722;28;20016;-81
2023/06/02 05:09:11;;;;;;;;;;;19.30;53.40;;;;;;5034282;28;20298;-82
2023/06/02 05:11:37;;;;;;;;;;;19.20;53.40;;;;;;5036162;28;19939;-82
2023/06/02 05:14:02;;;;;;;;;;;19.20;53.40;;;;;;5034102;28;20166;-82
2023/06/02 05:16:29;;;;;;;;;;;19.20;53.40;;;;;;5050205;28;19935;-82
2023/06/02 05:18:55;;;;;;;;;;;19.20;53.40;;;;;;5019771;28;19920;-82
2023/06/02 05:21:21;;;;;;;;;;;19.30;53.70;;;;;;5014217;28;19925;-82
2023/06/02 05:23:47;;;;;;;;;;;19.30;53.90;;;;;;5013678;28;20191;-82
2023/06/02 05:26:12;;;;;;;;;;;19.30;54.10;;;;;;5012334;28;19920;-82
2023/06/02 05:28:38;;;;;;;;;;;19.30;54.20;;;;;;5010543;28;20392;-82
2023/06/02 05:31:04;;;;;;;;;;;19.30;54.30;;;;;;5010103;28;19944;-82
2023/06/02 05:33:29;;;;;;;;;;;19.30;54.30;;;;;;5012428;28;19921;-81
2023/06/02 05:35:55;;;;;;;;;;;19.30;54.30;;;;;;5048791;28;19909;-81
2023/06/02 05:38:22;;;;;;;;;;;19.30;54.20;;;;;;5047535;28;20049;-81
2023/06/02 05:40:47;;;;;;;;;;;19.30;54.30;;;;;;5045825;28;20390;-82
2023/06/02 05:43:13;;;;;;;;;;;19.20;54.20;;;;;;5030699;28;19913;-81
2023/06/02 05:45:39;;;;;;;;;;;19.30;54.30;;;;;;5047972;28;19909;-82
2023/06/02 05:48:04;;;;;;;;;;;19.30;54.20;;;;;;5047240;28;19920;-82
2023/06/02 05:50:36;;;;;;;;;;;19.30;54.20;;;;;;5033147;28;20282;-82
2023/06/02 05:53:01;;;;;;;;;;;19.30;54.30;;;;;;5030102;28;20276;-82
2023/06/02 05:55:27;;;;;;;;;;;19.30;54.20;;;;;;5032771;28;19944;-82
2023/06/02 05:57:53;;;;;;;;;;;19.30;54.20;;;;;;5037124;28;19920;-82
2023/06/02 06:00:20;;;;;;;;;;;19.30;54.20;;;;;;5034495;28;20008;-82
2023/06/02 06:02:46;;;;;;;;;;;19.30;54.20;;;;;;5032700;28;19919;-81
2023/06/02 06:05:13;;;;;;;;;;;19.30;54.10;;;;;;5032419;28;20179;-82
2023/06/02 06:07:38;;;;;;;;;;;19.30;54.10;;;;;;5030534;28;19913;-82
2023/06/02 06:10:04;;;;;;;;;;;19.30;54.10;;;;;;5028627;28;19935;-82
2023/06/02 06:12:29;;;;;;;;;;;19.30;54.00;;;;;;5047213;28;19948;-81
2023/06/02 06:14:55;;;;;;;;;;;19.30;54.00;;;;;;5046107;28;19936;-81
2023/06/02 06:17:20;;;;;;;;;;;19.30;53.90;;;;;;5047900;28;20069;-82
2023/06/02 06:19:46;;;;;;;;;;;19.30;53.90;;;;;;5048038;28;19955;-81
2023/06/02 06:22:11;;;;;;;;;;;19.30;53.80;;;;;;5048031;28;19940;-82
2023/06/02 06:24:37;;;;;;;;;;;19.30;53.80;;;;;;5031044;28;19908;-82
2023/06/02 06:27:02;;;;;;;;;;;19.30;53.80;;;;;;5049811;28;19921;-82
2023/06/02 06:29:28;;;;;;;;;;;19.30;53.80;;;;;;5030489;28;19920;-82
2023/06/02 06:31:54;;;;;;;;;;;19.40;53.80;;;;;;5048181;28;19971;-80
2023/06/02 06:34:19;;;;;;;;;;;19.40;53.80;;;;;;5052488;28;20052;-80
2023/06/02 06:36:46;;;;;;;;;;;19.40;53.70;;;;;;5050091;28;19920;-80
2023/06/02 06:39:12;;;;;;;;;;;19.40;53.70;;;;;;5034267;28;19916;-80
2023/06/02 06:41:40;;;;;;;;;;;19.40;53.70;;;;;;5049848;28;19940;-79
2023/06/02 06:44:06;;;;;;;;;;;19.40;53.60;;;;;;5033364;28;19962;-80
2023/06/02 06:46:31;;;;;;;;;;;19.40;53.60;;;;;;5031119;28;19917;-80
2023/06/02 06:48:58;;;;;;;;;;;19.40;53.50;;;;;;5030451;28;19993;-80
2023/06/02 06:51:25;;;;;;;;;;;19.40;53.50;;;;;;5030892;28;20274;-80
2023/06/02 06:53:50;;;;;;;;;;;19.40;53.40;;;;;;5030080;28;19919;-79
2023/06/02 06:56:16;;;;;;;;;;;19.50;53.40;;;;;;5031841;28;19908;-80
2023/06/02 06:58:42;;;;;;;;;;;19.50;53.40;;;;;;5030978;28;19916;-80
2023/06/02 07:01:08;;;;;;;;;;;19.50;53.30;;;;;;5030172;28;19913;-80
2023/06/02 07:03:33;;;;;;;;;;;19.50;53.30;;;;;;5030767;28;19919;-80
2023/06/02 07:05:59;;;;;;;;;;;19.50;53.20;;;;;;5029983;28;19966;-80
2023/06/02 07:08:24;;;;;;;;;;;19.60;53.20;;;;;;5028932;28;19916;-79
2023/06/02 07:10:50;;;;;;;;;;;19.60;53.10;;;;;;5029819;28;20103;-79
2023/06/02 07:13:18;;;;;;;;;;;19.50;53.00;;;;;;5047009;28;19908;-80
2023/06/02 07:15:45;;;;;;;;;;;19.60;53.00;;;;;;5048961;28;20053;-80
2023/06/02 07:18:11;;;;;;;;;;;19.60;52.90;;;;;;5031226;28;20241;-80
2023/06/02 07:20:36;;;;;;;;;;;19.50;52.80;;;;;;5031316;28;19913;-80
2023/06/02 07:23:02;;;;;;;;;;;19.50;52.80;;;;;;5030347;28;19909;-80
2023/06/02 07:25:28;;;;;;;;;;;19.60;52.80;;;;;;5049596;28;19919;-80
2023/06/02 07:27:54;;;;;;;;;;;19.60;52.70;;;;;;5031274;28;19908;-80
2023/06/02 07:30:20;;;;;;;;;;;19.60;52.60;;;;;;5031806;28;19943;-80
2023/06/02 07:32:46;;;;;;;;;;;19.60;52.60;;;;;;5047232;28;19909;-80
2023/06/02 07:35:11;;;;;;;;;;;19.60;52.50;;;;;;5048989;28;19923;-80
2023/06/02 07:37:37;;;;;;;;;;;19.60;52.50;;;;;;5048684;28;19909;-80
2023/06/02 07:40:03;;;;;;;;;;;19.60;52.40;;;;;;5030138;28;20123;-80
2023/06/02 07:42:28;;;;;;;;;;;19.60;52.40;;;;;;5031898;28;20091;-80
2023/06/02 07:44:55;;;;;;;;;;;19.70;52.30;;;;;;5027035;28;19912;-81
2023/06/02 07:47:22;;;;;;;;;;;19.70;52.20;;;;;;5026089;28;20000;-82
2023/06/02 07:49:48;;;;;;;;;;;19.70;52.10;;;;;;5027876;28;19931;-82
2023/06/02 07:52:13;;;;;;;;;;;19.80;52.10;;;;;;5028528;28;19913;-83
2023/06/02 07:54:39;;;;;;;;;;;19.80;52.00;;;;;;5029314;28;19935;-82
2023/06/02 07:57:05;;;;;;;;;;;19.80;51.90;;;;;;5028966;28;20213;-81
2023/06/02 07:59:30;;;;;;;;;;;19.90;52.00;;;;;;5030572;28;20275;-82
2023/06/02 08:01:56;;;;;;;;;;;19.90;51.70;;;;;;5031131;28;19966;-82
2023/06/02 08:04:25;;;;;;;;;;;20.00;51.70;;;;;;5048091;28;19976;-82
2023/06/02 08:06:57;;;;;;;;;;;20.00;51.50;;;;;;5031258;28;19909;-82
2023/06/02 08:09:24;;;;;;;;;;;20.10;51.50;;;;;;5032245;28;19966;-82
2023/06/02 08:11:50;;;;;;;;;;;20.10;51.40;;;;;;5032015;28;19962;-82
2023/06/02 08:14:16;;;;;;;;;;;20.20;51.30;;;;;;5031834;28;19913;-82
2023/06/02 08:16:41;;;;;;;;;;;20.30;51.20;;;;;;5030503;28;20360;-82
2023/06/02 08:19:07;;;;;;;;;;;20.40;51.00;;;;;;5031841;28;19916;-82
2023/06/02 08:21:33;;;;;;;;;;;20.50;50.80;;;;;;5049067;28;19919;-82
2023/06/02 08:24:00;;;;;;;;;;;20.50;50.80;;;;;;5033258;28;19913;-80
2023/06/02 08:26:26;;;;;;;;;;;20.50;50.80;;;;;;5049440;28;19909;-80
2023/06/02 08:28:53;;;;;;;;;;;20.50;50.80;;;;;;5031101;28;20143;-80
2023/06/02 08:31:20;;;;;;;;;;;20.60;50.80;;;;;;5033629;28;20270;-80
2023/06/02 08:33:47;;;;;;;;;;;20.80;50.50;;;;;;5030623;28;20095;-80
2023/06/02 08:36:17;;;;;;;;;;;20.90;50.30;;;;;;5032469;28;19909;-80
2023/06/02 08:38:44;;;;;;;;;;;21.10;50.10;;;;;;5031503;28;20259;-80
2023/06/02 08:41:12;;;;;;;;;;;21.30;49.90;;;;;;5051372;28;20286;-80
2023/06/02 08:43:37;;;;;;;;;;;21.70;49.60;;;;;;5050456;28;20192;-80
2023/06/02 08:46:04;;;;;;;;;;;22.60;49.20;;;;;;5031897;28;19909;-80
2023/06/02 08:48:30;;;;;;;;;;;23.40;48.10;;;;;;5033406;28;20241;-80
2023/06/02 08:50:58;;;;;;;;;;;23.70;47.60;;;;;;5033896;28;19909;-80
2023/06/02 08:53:24;;;;;;;;;;;23.80;47.20;;;;;;5052663;28;19909;-80
2023/06/02 08:55:50;;;;;;;;;;;24.70;46.70;;;;;;5034781;28;20066;-80
2023/06/02 08:58:16;;;;;;;;;;;25.30;46.00;;;;;;5052980;28;19958;-81
2023/06/02 09:00:41;;;;;;;;;;;25.70;45.50;;;;;;5034434;28;20180;-80
2023/06/02 09:03:07;;;;;;;;;;;26.30;45.10;;;;;;5037160;28;19909;-80
2023/06/02 09:05:33;;;;;;;;;;;26.60;44.70;;;;;;5050958;28;19909;-80
2023/06/02 09:08:12;;;;;;;;;;;26.50;44.50;;;;;;5032992;28;19974;-80
2023/06/02 09:10:41;;;;;;;;;;;26.80;44.40;;;;;;5033615;28;19909;-80
2023/06/02 09:13:27;;;;;;;;;;;27.20;44.00;;;;;;5034428;28;19968;-80
2023/06/02 09:16:00;;;;;;;;;;;26.60;43.80;;;;;;5035050;28;19909;-80
2023/06/02 09:18:26;;;;;;;;;;;27.00;44.00;;;;;;5032295;28;19909;-80
2023/06/02 09:20:52;;;;;;;;;;;27.30;43.80;;;;;;5032272;28;19913;-80
2023/06/02 09:23:18;;;;;;;;;;;27.10;43.60;;;;;;5031548;28;19909;-80
2023/06/02 09:25:45;;;;;;;;;;;26.60;43.70;;;;;;5030189;28;19919;-80
2023/06/02 09:28:11;;;;;;;;;;;26.50;43.90;;;;;;5029568;28;20218;-80
2023/06/02 09:30:37;;;;;;;;;;;26.20;44.00;;;;;;5028298;28;20013;-81
2023/06/02 09:33:07;;;;;;;;;;;26.00;44.10;;;;;;5029609;28;19966;-80
2023/06/02 09:35:36;;;;;;;;;;;25.80;44.20;;;;;;5048215;28;19978;-80
2023/06/02 09:38:07;;;;;;;;;;;25.60;44.30;;;;;;5047527;28;19967;-80
2023/06/02 09:40:34;;;;;;;;;;;25.40;44.40;;;;;;5058299;28;19976;-80
2023/06/02 09:43:07;;;;;;;;;;;25.20;44.50;;;;;;5030033;28;20007;-80
2023/06/02 09:45:33;;;;;;;;;;;25.00;44.70;;;;;;5028444;28;19917;-80
2023/06/02 09:47:59;;;;;;;;;;;24.80;44.90;;;;;;5029123;28;20058;-80
2023/06/02 09:50:30;;;;;;;;;;;24.70;45.10;;;;;;5047289;28;20022;-80
2023/06/02 09:53:01;;;;;;;;;;;24.60;45.20;;;;;;5046621;28;20252;-81
2023/06/02 09:55:27;;;;;;;;;;;24.60;45.30;;;;;;5030734;28;20113;-80
2023/06/02 09:57:52;;;;;;;;;;;24.60;45.40;;;;;;5029964;28;19908;-81
2023/06/02 10:00:18;;;;;;;;;;;24.60;45.40;;;;;;5029061;28;20220;-81
2023/06/02 10:02:46;;;;;;;;;;;24.60;45.40;;;;;;5044706;28;19916;-81
2023/06/02 10:05:11;;;;;;;;;;;24.50;45.40;;;;;;5027427;28;19916;-80
2023/06/02 10:07:50;;;;;;;;;;;24.50;45.50;;;;;;5028131;28;19905;-80
2023/06/02 10:10:37;;;;;;;;;;;24.50;45.50;;;;;;5043474;28;19912;-80
2023/06/02 10:13:15;;;;;;;;;;;24.50;45.60;;;;;;5026337;28;19917;-81
2023/06/02 10:15:44;;;;;;;;;;;24.40;45.60;;;;;;5045445;28;19992;-81
2023/06/02 10:18:14;;;;;;;;;;;24.40;45.60;;;;;;5044839;28;20310;-81
2023/06/02 10:21:03;;;;;;;;;;;24.40;45.70;;;;;;5046309;28;20152;-81
2023/06/02 10:23:47;;;;;;;;;;;24.30;45.80;;;;;;5043885;28;19944;-81
2023/06/02 10:26:31;;;;;;;;;;;24.20;45.90;;;;;;5044289;28;20156;-80
2023/06/02 10:28:59;;;;;;;;;;;24.10;45.90;;;;;;5048837;28;20058;-81
2023/06/02 10:31:31;;;;;;;;;;;24.10;46.00;;;;;;5030787;28;19952;-80
2023/06/02 10:33:59;;;;;;;;;;;24.10;46.00;;;;;;5048009;28;19935;-82
2023/06/02 10:36:25;;;;;;;;;;;24.10;46.00;;;;;;5047542;28;20107;-81
2023/06/02 10:38:50;;;;;;;;;;;24.10;46.00;;;;;;5047386;28;20011;-81
2023/06/02 10:41:21;;;;;;;;;;;24.10;46.00;;;;;;5047600;28;20015;-80
2023/06/02 10:44:21;;;;;;;;;;;24.10;46.10;;;;;;5046997;28;19916;-80
2023/06/02 10:46:46;;;;;;;;;;;24.10;46.10;;;;;;5011662;28;19964;-81
2023/06/02 10:49:30;;;;;;;;;;;24.10;46.10;;;;;;5028211;28;20331;-80
2023/06/02 10:52:05;;;;;;;;;;;24.00;46.20;;;;;;5025747;28;19913;-81
2023/06/02 10:54:31;;;;;;;;;;;24.00;46.40;;;;;;5026163;28;20209;-81
2023/06/02 10:56:59;;;;;;;;;;;23.90;46.40;;;;;;5027812;28;20003;-80
2023/06/02 10:59:32;;;;;;;;;;;23.90;46.40;;;;;;5027938;28;19909;-80
2023/06/02 11:01:57;;;;;;;;;;;23.80;46.50;;;;;;5044852;28;20208;-80
2023/06/02 11:04:27;;;;;;;;;;;23.80;46.60;;;;;;5028116;28;19916;-80
2023/06/02 11:07:26;;;;;;;;;;;23.80;46.70;;;;;;5029838;28;20222;-80
2023/06/02 11:09:56;;;;;;;;;;;23.70;46.70;;;;;;5027296;28;19917;-81
2023/06/02 11:12:42;;;;;;;;;;;23.60;46.80;;;;;;5028825;28;19915;-80
2023/06/02 11:15:07;;;;;;;;;;;23.60;46.90;;;;;;5017273;28;19931;-81
2023/06/02 11:17:33;;;;;;;;;;;23.60;47.00;;;;;;5039006;28;20108;-81
2023/06/02 11:19:59;;;;;;;;;;;23.50;47.00;;;;;;5024891;28;19971;-82
2023/06/02 11:22:27;;;;;;;;;;;23.50;47.10;;;;;;5025670;28;19913;-81
2023/06/02 11:24:53;;;;;;;;;;;23.40;47.20;;;;;;5031538;28;19908;-82
2023/06/02 11:27:19;;;;;;;;;;;23.40;47.20;;;;;;5031311;28;19970;-81
2023/06/02 11:29:44;;;;;;;;;;;23.40;47.30;;;;;;5032015;28;20097;-81
2023/06/02 11:32:11;;;;;;;;;;;23.40;47.30;;;;;;5049957;28;20348;-81
2023/06/02 11:34:37;;;;;;;;;;;23.40;47.40;;;;;;5030600;28;19920;-81
2023/06/02 11:37:13;;;;;;;;;;;23.40;47.40;;;;;;5029900;28;20058;-81
2023/06/02 11:39:49;;;;;;;;;;;23.30;47.40;;;;;;5030407;28;19916;-81
2023/06/02 11:42:15;;;;;;;;;;;23.30;47.50;;;;;;5030969;28;20330;-82
2023/06/02 11:44:47;;;;;;;;;;;23.30;47.50;;;;;;5031741;28;20023;-82
2023/06/02 11:47:16;;;;;;;;;;;23.30;47.60;;;;;;5031739;28;19923;-81
2023/06/02 11:49:42;;;;;;;;;;;23.30;47.70;;;;;;5034449;28;20271;-82
2023/06/02 11:52:09;;;;;;;;;;;23.20;47.80;;;;;;5033011;28;19966;-82
2023/06/02 11:54:47;;;;;;;;;;;23.20;47.80;;;;;;5050094;28;20370;-81
2023/06/02 11:57:13;;;;;;;;;;;23.20;47.90;;;;;;5033836;28;19916;-81
2023/06/02 11:59:39;;;;;;;;;;;23.20;47.80;;;;;;5032675;28;20207;-82
2023/06/02 12:02:18;;;;;;;;;;;23.20;47.90;;;;;;5049777;28;19912;-82
2023/06/02 12:04:44;;;;;;;;;;;23.20;47.90;;;;;;5032028;28;19982;-82
2023/06/02 12:07:10;;;;;;;;;;;23.20;47.90;;;;;;5048964;28;20295;-81
2023/06/02 12:09:35;;;;;;;;;;;23.20;47.90;;;;;;5031491;28;19920;-82
2023/06/02 12:12:07;;;;;;;;;;;23.20;48.00;;;;;;5029122;28;19923;-81
2023/06/02 12:14:39;;;;;;;;;;;23.20;48.00;;;;;;5047641;28;19909;-82
2023/06/02 12:17:05;;;;;;;;;;;23.20;48.10;;;;;;5031279;28;19908;-82
2023/06/02 12:19:30;;;;;;;;;;;23.20;48.10;;;;;;5047914;28;19947;-81
2023/06/02 12:22:05;;;;;;;;;;;23.10;48.10;;;;;;5047093;28;20310;-81
2023/06/02 12:24:33;;;;;;;;;;;23.10;48.20;;;;;;5027692;28;19909;-81
2023/06/02 12:26:59;;;;;;;;;;;23.10;48.30;;;;;;5044180;28;20259;-82
2023/06/02 12:29:25;;;;;;;;;;;23.10;48.40;;;;;;5029896;28;19909;-83
2023/06/02 12:31:58;;;;;;;;;;;23.00;48.40;;;;;;5031520;28;20279;-82
2023/06/02 12:34:23;;;;;;;;;;;23.00;48.40;;;;;;5046774;28;19924;-81
2023/06/02 12:36:49;;;;;;;;;;;23.00;48.50;;;;;;5047375;28;19934;-81
2023/06/02 12:39:15;;;;;;;;;;;23.00;48.50;;;;;;5029456;28;20002;-81
2023/06/02 12:41:40;;;;;;;;;;;23.00;48.50;;;;;;5030353;28;19940;-81
2023/06/02 12:44:06;;;;;;;;;;;23.00;48.50;;;;;;5029349;28;20223;-82
2023/06/02 12:46:31;;;;;;;;;;;23.00;48.50;;;;;;5028957;28;19920;-82
2023/06/02 12:48:58;;;;;;;;;;;22.90;48.60;;;;;;5028510;28;19970;-82
2023/06/02 12:51:24;;;;;;;;;;;22.90;48.60;;;;;;5046554;28;20332;-82
2023/06/02 12:53:49;;;;;;;;;;;22.90;48.70;;;;;;5027652;28;19908;-81
2023/06/02 12:56:15;;;;;;;;;;;22.90;48.80;;;;;;5030001;28;20294;-82
2023/06/02 12:58:41;;;;;;;;;;;22.90;48.80;;;;;;5028461;28;19919;-82
2023/06/02 13:01:06;;;;;;;;;;;23.00;48.80;;;;;;5027299;28;20094;-82
2023/06/02 13:03:32;;;;;;;;;;;23.00;48.80;;;;;;5027878;28;19978;-81
2023/06/02 13:05:59;;;;;;;;;;;23.00;48.80;;;;;;5027826;28;19935;-81
2023/06/02 13:08:25;;;;;;;;;;;23.00;48.80;;;;;;5029515;28;20344;-81
2023/06/02 13:10:51;;;;;;;;;;;23.00;48.90;;;;;;5031820;28;19913;-81
2023/06/02 13:13:16;;;;;;;;;;;22.90;48.90;;;;;;5026485;28;19936;-81
2023/06/02 13:15:42;;;;;;;;;;;22.90;48.90;;;;;;5024642;28;20004;-81
2023/06/02 13:18:08;;;;;;;;;;;23.00;48.90;;;;;;5027617;28;19915;-82
2023/06/02 13:20:33;;;;;;;;;;;23.00;48.90;;;;;;5027198;28;20073;-81
2023/06/02 13:22:59;;;;;;;;;;;23.00;48.90;;;;;;5028296;28;20120;-81
2023/06/02 13:25:26;;;;;;;;;;;23.00;49.00;;;;;;5027423;28;20400;-82
2023/06/02 13:27:53;;;;;;;;;;;23.00;49.00;;;;;;5028448;28;19912;-82
2023/06/02 13:30:20;;;;;;;;;;;23.00;49.10;;;;;;5026686;28;20148;-82
2023/06/02 13:32:45;;;;;;;;;;;23.00;49.10;;;;;;5027225;28;19917;-82
2023/06/02 13:35:11;;;;;;;;;;;23.00;49.10;;;;;;5046413;28;20180;-82
2023/06/02 13:37:36;;;;;;;;;;;23.00;49.10;;;;;;5027429;28;20463;-81
2023/06/02 13:40:03;;;;;;;;;;;23.00;49.20;;;;;;5047327;28;19916;-81
2023/06/02 13:42:29;;;;;;;;;;;23.00;49.20;;;;;;5027527;28;19920;-81
2023/06/02 13:44:54;;;;;;;;;;;23.00;49.20;;;;;;5028904;28;19908;-82
2023/06/02 13:47:20;;;;;;;;;;;23.00;49.10;;;;;;5048589;28;20258;-82
2023/06/02 13:49:45;;;;;;;;;;;23.00;49.20;;;;;;5031293;28;20399;-82
2023/06/02 13:52:11;;;;;;;;;;;22.90;49.20;;;;;;5035712;28;20302;-82
2023/06/02 13:54:37;;;;;;;;;;;22.90;49.30;;;;;;5033379;28;20261;-82
2023/06/02 13:57:03;;;;;;;;;;;22.90;49.20;;;;;;5030923;28;20007;-81
2023/06/02 13:59:30;;;;;;;;;;;23.00;49.20;;;;;;5048878;28;20022;-82
2023/06/02 14:01:56;;;;;;;;;;;23.00;49.20;;;;;;5031375;28;19966;-82
2023/06/02 14:04:21;;;;;;;;;;;23.00;49.20;;;;;;5030386;28;19913;-81
2023/06/02 14:06:47;;;;;;;;;;;23.00;49.20;;;;;;5029466;28;19916;-81
2023/06/02 14:09:12;;;;;;;;;;;23.00;49.20;;;;;;5029754;28;20183;-82
2023/06/02 14:11:38;;;;;;;;;;;23.00;49.30;;;;;;5030593;28;19948;-82
2023/06/02 14:14:05;;;;;;;;;;;22.90;49.30;;;;;;5045712;28;19909;-82
2023/06/02 14:16:31;;;;;;;;;;;22.90;49.30;;;;;;5025795;28;19920;-82